Time;durP1;ratioP1;P1;durP2;ratioP2;P2;SDS_P1;SDS_P2;PMS_P1;PMS_P2;Temp;Humidity;BMP_temperature;BMP_pressure;BME280_temperature;BME280_humidity;BME280_pressure;Samples;Min_cycle;Max_cycle;Signal;HPM_P1;HPM_P2
2023/03/10 00:00:07;;;;;;;0.52;0.30;;;;;;;4.81;100.00;98464.22;4990727;28;20425;-74
2023/03/10 00:02:33;;;;;;;0.35;0.20;;;;;;;4.89;100.00;98458.88;4991227;28;20069;-74
2023/03/10 00:05:00;;;;;;;0.40;0.30;;;;;;;4.89;100.00;98462.34;4988394;28;20045;-74
2023/03/10 00:07:25;;;;;;;0.77;0.52;;;;;;;4.92;100.00;98451.84;4991057;28;20117;-74
2023/03/10 00:09:51;;;;;;;0.00;0.00;;;;;;;4.86;100.00;98453.72;4988730;28;20050;-74
2023/03/10 00:12:16;;;;;;;0.00;0.00;;;;;;;4.71;100.00;98458.28;4991570;28;20134;-74
2023/03/10 00:14:41;;;;;;;0.00;0.00;;;;;;;4.68;100.00;98455.72;4985253;28;20030;-74
2023/03/10 00:17:07;;;;;;;0.00;0.00;;;;;;;4.69;100.00;98451.34;4987230;28;20544;-74
2023/03/10 00:19:32;;;;;;;0.00;0.00;;;;;;;4.65;100.00;98454.91;4987097;28;20042;-74
2023/03/10 00:21:57;;;;;;;0.00;0.00;;;;;;;4.63;100.00;98446.22;4988740;28;20034;-74
2023/03/10 00:24:23;;;;;;;0.00;0.00;;;;;;;4.65;100.00;98445.31;4988134;28;20049;-74
2023/03/10 00:26:49;;;;;;;0.00;0.00;;;;;;;4.67;100.00;98440.94;4985515;28;20452;-74
2023/03/10 00:29:15;;;;;;;0.00;0.00;;;;;;;4.63;100.00;98434.03;4984412;28;20042;-74
2023/03/10 00:31:40;;;;;;;0.03;0.03;;;;;;;4.61;100.00;98428.84;4991205;28;20497;-74
2023/03/10 00:34:06;;;;;;;0.10;0.10;;;;;;;4.62;100.00;98416.63;4993439;28;20038;-74
2023/03/10 00:36:32;;;;;;;0.00;0.00;;;;;;;4.59;100.00;98419.31;4982088;28;20034;-74
2023/03/10 00:39:00;;;;;;;0.00;0.00;;;;;;;4.59;100.00;98411.47;4985405;28;20045;-74
2023/03/10 00:41:29;;;;;;;0.00;0.00;;;;;;;4.61;100.00;98404.44;4991764;28;20066;-74
2023/03/10 00:43:56;;;;;;;0.00;0.00;;;;;;;4.58;100.00;98400.16;4994510;28;20022;-74
2023/03/10 00:46:22;;;;;;;0.00;0.00;;;;;;;4.57;100.00;98393.19;4988051;28;20456;-74
2023/03/10 00:48:48;;;;;;;0.10;0.10;;;;;;;4.58;100.00;98386.22;4987886;28;20030;-74
2023/03/10 00:51:13;;;;;;;0.00;0.00;;;;;;;4.64;100.00;98380.00;4986852;28;20388;-74
2023/03/10 00:53:40;;;;;;;0.10;0.10;;;;;;;4.63;100.00;98375.69;4984527;28;20062;-74
2023/03/10 00:56:12;;;;;;;0.08;0.08;;;;;;;4.61;100.00;98365.25;4987666;28;20430;-74
2023/03/10 00:58:38;;;;;;;0.10;0.10;;;;;;;4.65;100.00;98361.72;4991470;28;20042;-74
2023/03/10 01:01:10;;;;;;;0.00;0.00;;;;;;;4.66;100.00;98362.56;4981076;28;20042;-74
2023/03/10 01:03:35;;;;;;;0.00;0.00;;;;;;;4.67;100.00;98346.88;4981653;28;20038;-73
2023/03/10 01:06:01;;;;;;;0.00;0.00;;;;;;;4.67;100.00;98351.25;4986213;28;20112;-74
2023/03/10 01:08:26;;;;;;;0.00;0.00;;;;;;;4.67;100.00;98333.81;4981465;28;20046;-74
2023/03/10 01:10:51;;;;;;;0.10;0.10;;;;;;;4.67;100.00;98331.19;4986691;28;20085;-74
2023/03/10 01:13:17;;;;;;;0.03;0.03;;;;;;;4.74;100.00;98329.31;4981061;28;20066;-73
2023/03/10 01:15:49;;;;;;;0.00;0.00;;;;;;;4.81;100.00;98323.09;4990617;28;20038;-74
2023/03/10 01:18:16;;;;;;;0.00;0.00;;;;;;;4.81;100.00;98310.91;4989664;28;20042;-74
2023/03/10 01:20:42;;;;;;;73.97;42.28;;;;;;;4.86;100.00;98309.97;4986407;28;20042;-74
2023/03/10 01:23:19;;;;;;;0.10;0.10;;;;;;;4.92;100.00;98312.44;4986483;28;20034;-74
2023/03/10 01:25:45;;;;;;;0.00;0.00;;;;;;;4.88;100.00;98303.81;4986999;28;20034;-74
2023/03/10 01:28:11;;;;;;;0.00;0.00;;;;;;;4.92;100.00;98300.25;4986043;28;20123;-73
2023/03/10 01:30:37;;;;;;;0.00;0.00;;;;;;;4.92;100.00;98300.25;4990450;28;20111;-74
2023/03/10 01:33:02;;;;;;;0.00;0.00;;;;;;;5.01;100.00;98294.84;4982950;28;20031;-74
2023/03/10 01:35:29;;;;;;;0.00;0.00;;;;;;;5.07;100.00;98282.53;4989432;28;20041;-74
2023/03/10 01:37:55;;;;;;;0.00;0.00;;;;;;;5.11;100.00;98281.56;4975796;28;20165;-74
2023/03/10 01:40:20;;;;;;;0.00;0.00;;;;;;;5.20;100.00;98278.78;4988183;28;20030;-74
2023/03/10 01:42:46;;;;;;;0.00;0.00;;;;;;;5.31;100.00;98265.47;4981393;28;20038;-74
2023/03/10 01:45:31;;;;;;;0.00;0.00;;;;;;;5.35;100.00;98260.16;4984998;28;20041;-74
2023/03/10 01:47:57;;;;;;;0.00;0.00;;;;;;;5.36;100.00;98248.78;4964359;28;20046;-74
2023/03/10 01:50:23;;;;;;;0.00;0.00;;;;;;;5.42;100.00;98253.91;4981394;28;20046;-74
2023/03/10 01:52:55;;;;;;;0.00;0.00;;;;;;;5.47;100.00;98240.72;4987189;28;20370;-74
2023/03/10 01:55:26;;;;;;;0.00;0.00;;;;;;;5.58;100.00;98236.13;4990680;28;20037;-74
2023/03/10 01:57:54;;;;;;;0.00;0.00;;;;;;;5.67;100.00;98240.28;4983767;28;20038;-74
2023/03/10 02:00:21;;;;;;;0.00;0.00;;;;;;;5.68;100.00;98223.66;4990399;28;20262;-74
2023/03/10 02:03:17;;;;;;;0.00;0.00;;;;;;;5.75;100.00;98221.78;4989590;28;20053;-74
2023/03/10 02:05:58;;;;;;;0.00;0.00;;;;;;;5.77;100.00;98218.22;4990199;28;21270;-74
2023/03/10 02:08:28;;;;;;;0.00;0.00;;;;;;;5.70;100.00;98214.03;4988787;28;20034;-74
2023/03/10 02:10:54;;;;;;;0.00;0.00;;;;;;;5.70;100.00;98207.03;4983593;28;20026;-76
2023/03/10 02:13:20;;;;;;;0.00;0.00;;;;;;;5.69;100.00;98209.69;4986947;28;20038;-74
2023/03/10 02:15:46;;;;;;;0.00;0.00;;;;;;;5.65;100.00;98206.28;4980579;28;20031;-74
2023/03/10 02:18:14;;;;;;;0.00;0.00;;;;;;;5.66;100.00;98207.16;4986981;28;20038;-74
2023/03/10 02:21:07;;;;;;;0.00;0.00;;;;;;;5.63;100.00;98201.97;4983567;28;20041;-74
2023/03/10 02:24:02;;;;;;;0.00;0.00;;;;;;;5.65;100.00;98194.94;4984938;28;20093;-74
2023/03/10 02:26:57;;;;;;;0.00;0.00;;;;;;;5.82;100.00;98189.34;4985431;28;20034;-74
2023/03/10 02:29:31;;;;;;;0.00;0.00;;;;;;;5.94;100.00;98181.19;4984116;28;20516;-74
2023/03/10 02:31:57;;;;;;;0.00;0.00;;;;;;;6.04;100.00;98172.19;4987303;28;20521;-74
2023/03/10 02:34:25;;;;;;;0.00;0.00;;;;;;;6.12;100.00;98175.47;4981310;28;20046;-74
2023/03/10 02:36:50;;;;;;;0.00;0.00;;;;;;;6.14;100.00;98176.31;4990280;28;20503;-74
2023/03/10 02:39:16;;;;;;;0.00;0.00;;;;;;;6.10;100.00;98174.69;4986585;28;20055;-74
2023/03/10 02:41:42;;;;;;;0.00;0.00;;;;;;;6.01;100.00;98168.81;4983406;28;20490;-74
2023/03/10 02:44:13;;;;;;;0.00;0.00;;;;;;;6.04;100.00;98173.97;4983587;28;20034;-74
2023/03/10 02:46:39;;;;;;;0.00;0.00;;;;;;;6.13;100.00;98158.88;4984114;28;20577;-75
2023/03/10 02:49:06;;;;;;;0.00;0.00;;;;;;;6.25;100.00;98154.22;4985680;28;20109;-74
2023/03/10 02:51:42;;;;;;;0.00;0.00;;;;;;;6.37;100.00;98140.78;4988111;28;20023;-73
2023/03/10 02:54:11;;;;;;;0.00;0.00;;;;;;;6.40;100.00;98140.69;4986349;28;20034;-74
2023/03/10 02:56:37;;;;;;;0.00;0.00;;;;;;;6.53;100.00;98136.84;4986156;28;20124;-74
2023/03/10 02:59:05;;;;;;;0.00;0.00;;;;;;;6.69;100.00;98133.78;4984090;28;20117;-74
2023/03/10 03:01:32;;;;;;;0.00;0.00;;;;;;;6.80;100.00;98119.44;4980649;28;20129;-74
2023/03/10 03:03:59;;;;;;;0.00;0.00;;;;;;;6.99;100.00;98114.50;4982887;28;20118;-74
2023/03/10 03:06:26;;;;;;;0.00;0.00;;;;;;;7.18;100.00;98111.34;4981343;28;20416;-73
2023/03/10 03:08:51;;;;;;;0.00;0.00;;;;;;;7.36;100.00;98107.25;4983652;28;20077;-74
2023/03/10 03:11:19;;;;;;;0.00;0.00;;;;;;;7.47;100.00;98092.91;4982896;28;20114;-74
2023/03/10 03:13:44;;;;;;;0.00;0.00;;;;;;;7.55;100.00;98086.56;4982479;28;20125;-74
2023/03/10 03:16:10;;;;;;;0.00;0.00;;;;;;;7.68;100.00;98087.84;4988105;28;20034;-74
2023/03/10 03:18:37;;;;;;;0.00;0.00;;;;;;;7.78;100.00;98084.00;4982786;28;20031;-72
2023/03/10 03:21:07;;;;;;;0.00;0.00;;;;;;;7.90;100.00;98077.47;4982457;28;20051;-72
2023/03/10 03:23:33;;;;;;;0.00;0.00;;;;;;;7.99;100.00;98081.53;4983367;28;20034;-72
2023/03/10 03:25:59;;;;;;;0.00;0.00;;;;;;;8.04;100.00;98082.22;4989369;28;20026;-74
2023/03/10 03:28:24;;;;;;;0.00;0.00;;;;;;;8.15;100.00;98077.47;4981478;28;20031;-72
2023/03/10 03:30:51;;;;;;;0.00;0.00;;;;;;;8.24;100.00;98064.00;4981193;28;20038;-72
2023/03/10 03:33:17;;;;;;;0.00;0.00;;;;;;;8.31;100.00;98059.38;4985625;28;20036;-71
2023/03/10 03:35:43;;;;;;;0.00;0.00;;;;;;;8.35;100.00;98053.94;4981999;28;20049;-72
2023/03/10 03:38:09;;;;;;;0.00;0.00;;;;;;;8.34;100.00;98054.03;4983707;28;20591;-72
2023/03/10 03:40:36;;;;;;;0.00;0.00;;;;;;;8.38;100.00;98052.13;4977697;28;20034;-72
2023/03/10 03:43:04;;;;;;;0.00;0.00;;;;;;;8.39;100.00;98045.97;4978566;28;20097;-72
2023/03/10 03:45:31;;;;;;;0.00;0.00;;;;;;;8.42;100.00;98048.50;4979515;28;20027;-72
2023/03/10 03:47:57;;;;;;;0.10;0.10;;;;;;;8.46;100.00;98050.97;4982713;28;20034;-72
2023/03/10 03:50:24;;;;;;;0.03;0.03;;;;;;;8.46;100.00;98040.47;4980452;28;20042;-72
2023/03/10 03:52:51;;;;;;;0.10;0.10;;;;;;;8.47;100.00;98041.31;4980119;28;20446;-72
2023/03/10 03:55:20;;;;;;;0.00;0.00;;;;;;;8.47;100.00;98041.31;4981652;28;20044;-72
2023/03/10 03:57:48;;;;;;;0.00;0.00;;;;;;;8.43;100.00;98037.06;4979353;28;20390;-72
2023/03/10 04:00:19;;;;;;;0.05;0.05;;;;;;;8.48;100.00;98022.00;4980705;28;20027;-73
2023/03/10 04:02:47;;;;;;;0.10;0.10;;;;;;;8.45;100.00;98027.38;4979363;28;20122;-72
2023/03/10 04:05:13;;;;;;;0.10;0.10;;;;;;;8.46;100.00;98015.94;4984200;28;20117;-72
2023/03/10 04:07:41;;;;;;;0.10;0.10;;;;;;;8.45;100.00;98017.72;4981464;28;20031;-74
2023/03/10 04:10:11;;;;;;;0.10;0.10;;;;;;;8.44;100.00;98010.75;4978595;28;20152;-74
2023/03/10 04:12:37;;;;;;;0.10;0.10;;;;;;;8.38;100.00;98004.81;4995624;28;20062;-74
2023/03/10 04:15:03;;;;;;;0.00;0.00;;;;;;;8.36;100.00;98004.91;5001632;28;20564;-74
2023/03/10 04:17:29;;;;;;;0.00;0.00;;;;;;;8.38;100.00;98004.81;4988976;28;20519;-74
2023/03/10 04:19:54;;;;;;;0.00;0.00;;;;;;;8.39;100.00;97994.28;4984487;28;20034;-74
2023/03/10 04:22:19;;;;;;;0.10;0.10;;;;;;;8.33;100.00;98002.34;4987111;28;20045;-74
2023/03/10 04:24:46;;;;;;;0.10;0.10;;;;;;;8.38;100.00;97997.78;4988610;28;20113;-74
2023/03/10 04:27:12;;;;;;;0.00;0.00;;;;;;;8.33;100.00;97995.34;4989416;28;20119;-74
2023/03/10 04:29:37;;;;;;;0.00;0.00;;;;;;;8.38;100.00;97987.28;4981626;28;20042;-74
2023/03/10 04:32:04;;;;;;;0.00;0.00;;;;;;;8.33;100.00;97981.31;5000914;28;20038;-74
2023/03/10 04:34:30;;;;;;;0.05;0.05;;;;;;;8.35;100.00;97985.63;4982164;28;20128;-74
2023/03/10 04:36:55;;;;;;;0.00;0.00;;;;;;;8.37;100.00;97982.09;4985225;28;20543;-74
2023/03/10 04:39:21;;;;;;;0.10;0.10;;;;;;;8.42;100.00;97980.19;4983270;28;20034;-74
2023/03/10 04:41:46;;;;;;;0.00;0.00;;;;;;;8.52;100.00;97978.91;4985348;28;20045;-74
2023/03/10 04:44:11;;;;;;;0.00;0.00;;;;;;;8.57;100.00;97976.97;4969071;28;20035;-74
2023/03/10 04:46:38;;;;;;;0.00;0.00;;;;;;;8.60;100.00;97968.94;4981812;28;20624;-74
2023/03/10 04:49:05;;;;;;;0.00;0.00;;;;;;;8.64;100.00;97975.78;4984823;28;20038;-74
2023/03/10 04:51:30;;;;;;;0.00;0.00;;;;;;;8.67;100.00;97975.69;4983000;28;20398;-74
2023/03/10 04:53:56;;;;;;;0.00;0.00;;;;;;;8.72;100.00;97971.13;4984928;28;20030;-74
2023/03/10 04:56:24;;;;;;;0.00;0.00;;;;;;;8.73;100.00;97958.81;4983651;28;20512;-74
2023/03/10 04:58:50;;;;;;;0.00;0.00;;;;;;;8.77;100.00;97961.22;4983699;28;20030;-74
2023/03/10 05:01:16;;;;;;;0.00;0.00;;;;;;;8.82;100.00;97960.22;4985146;28;20405;-74
2023/03/10 05:03:45;;;;;;;0.10;0.10;;;;;;;8.80;100.00;97957.63;4985181;28;20090;-74
2023/03/10 05:06:14;;;;;;;0.00;0.00;;;;;;;8.86;100.00;97956.56;4985035;28;20397;-74
2023/03/10 05:08:41;;;;;;;0.00;0.00;;;;;;;8.88;100.00;97957.31;4992183;28;20448;-73
2023/03/10 05:11:08;;;;;;;0.00;0.00;;;;;;;8.94;100.00;97954.47;4982136;28;20035;-74
2023/03/10 05:13:33;;;;;;;0.00;0.00;;;;;;;8.90;100.00;97939.72;4985021;28;20058;-74
2023/03/10 05:16:00;;;;;;;0.00;0.00;;;;;;;8.88;100.00;97942.41;4987566;28;20019;-74
2023/03/10 05:18:26;;;;;;;0.00;0.00;;;;;;;8.90;100.00;97937.06;4981425;28;20053;-74
2023/03/10 05:20:52;;;;;;;0.00;0.00;;;;;;;8.94;100.00;97938.69;4984221;28;20468;-74
2023/03/10 05:23:18;;;;;;;0.00;0.00;;;;;;;9.00;100.00;97941.03;4981059;28;20030;-74
2023/03/10 05:25:43;;;;;;;0.00;0.00;;;;;;;9.13;100.00;97939.63;4984403;28;20109;-74
2023/03/10 05:28:09;;;;;;;0.00;0.00;;;;;;;9.28;100.00;97935.50;4981049;28;20508;-75
2023/03/10 05:30:34;;;;;;;0.00;0.00;;;;;;;9.38;100.00;97930.72;4987860;28;20117;-74
2023/03/10 05:33:01;;;;;;;0.00;0.00;;;;;;;9.48;100.00;97929.34;4981147;28;20038;-74
2023/03/10 05:35:26;;;;;;;0.10;0.10;;;;;;;9.57;100.00;97931.59;4985877;28;20030;-74
2023/03/10 05:37:51;;;;;;;0.10;0.10;;;;;;;9.56;100.00;97927.28;4983801;28;20042;-74
2023/03/10 05:40:21;;;;;;;0.10;0.10;;;;;;;9.68;100.00;97922.38;4982281;28;20051;-73
2023/03/10 05:42:47;;;;;;;0.03;0.03;;;;;;;9.69;100.00;97929.34;4983570;28;20030;-74
2023/03/10 05:45:14;;;;;;;0.00;0.00;;;;;;;9.78;100.00;97932.44;4982125;28;20038;-74
2023/03/10 05:47:39;;;;;;;0.00;0.00;;;;;;;9.81;100.00;97928.81;4987878;28;20057;-74
2023/03/10 05:50:06;;;;;;;0.00;0.00;;;;;;;9.88;100.00;97920.56;4985250;28;20030;-73
2023/03/10 05:52:35;;;;;;;0.05;0.05;;;;;;;9.95;100.00;97922.91;4983644;28;20056;-74
2023/03/10 05:55:02;;;;;;;0.00;0.00;;;;;;;9.94;100.00;97916.81;4983222;28;20038;-73
2023/03/10 05:57:27;;;;;;;0.10;0.10;;;;;;;9.98;100.00;97921.03;4981441;28;20046;-74
2023/03/10 05:59:52;;;;;;;0.10;0.10;;;;;;;10.02;100.00;97914.66;4980051;28;20742;-74
2023/03/10 06:02:18;;;;;;;0.00;0.00;;;;;;;10.09;100.00;97918.75;4990765;28;20035;-74
2023/03/10 06:04:43;;;;;;;203.95;186.75;;;;;;;10.10;100.00;97912.53;4985150;28;20184;-74
2023/03/10 06:07:08;;;;;;;275.48;243.93;;;;;;;10.13;100.00;97918.59;4982484;28;20046;-74
2023/03/10 06:09:34;;;;;;;1999.90;999.90;;;;;;;10.19;100.00;97921.81;4984123;28;20034;-74
2023/03/10 06:11:59;;;;;;;0.10;0.10;;;;;;;10.19;100.00;97911.28;4988813;28;20022;-74
2023/03/10 06:14:25;;;;;;;0.00;0.00;;;;;;;10.24;100.00;97911.03;4985026;28;20104;-73
2023/03/10 06:16:53;;;;;;;0.10;0.10;;;;;;;10.34;100.00;97903.59;4988971;28;20555;-74
2023/03/10 06:19:20;;;;;;;0.00;0.00;;;;;;;10.43;100.00;97905.81;4983718;28;20058;-74
2023/03/10 06:21:46;;;;;;;0.00;0.00;;;;;;;10.40;100.00;97905.94;4983112;28;20066;-74
2023/03/10 06:24:11;;;;;;;0.10;0.10;;;;;;;10.42;100.00;97901.44;4984644;28;20069;-74
2023/03/10 06:26:37;;;;;;;0.08;0.08;;;;;;;10.42;100.00;97907.56;4981676;28;20042;-73
2023/03/10 06:29:04;;;;;;;0.20;0.10;;;;;;;10.41;100.00;97905.88;4984138;28;20030;-73
2023/03/10 06:31:30;;;;;;;0.10;0.10;;;;;;;10.52;100.00;97900.94;4981062;28;20030;-74
2023/03/10 06:33:55;;;;;;;0.00;0.00;;;;;;;10.56;100.00;97900.78;4984695;28;20045;-74
2023/03/10 06:36:22;;;;;;;0.10;0.10;;;;;;;10.62;100.00;97905.78;4984805;28;20065;-73
2023/03/10 06:38:47;;;;;;;0.10;0.10;;;;;;;10.60;100.00;97907.63;4982682;28;20100;-74
2023/03/10 06:41:13;;;;;;;0.10;0.10;;;;;;;10.65;100.00;97908.25;4980871;28;20478;-74
2023/03/10 06:43:39;;;;;;;0.20;0.20;;;;;;;10.63;100.00;97902.19;4983271;28;20037;-73
2023/03/10 06:46:07;;;;;;;0.10;0.10;;;;;;;10.65;100.00;97909.13;4982328;28;20066;-74
2023/03/10 06:48:33;;;;;;;0.10;0.10;;;;;;;10.63;100.00;97907.47;4984244;28;20038;-74
2023/03/10 06:50:58;;;;;;;0.10;0.10;;;;;;;10.65;100.00;97914.38;4982119;28;20087;-74
2023/03/10 06:53:24;;;;;;;0.10;0.10;;;;;;;10.72;100.00;97912.31;4982944;28;20634;-74
2023/03/10 06:56:04;;;;;;;0.10;0.10;;;;;;;10.74;100.00;97916.59;4972465;28;20053;-74
2023/03/10 06:58:31;;;;;;;0.20;0.20;;;;;;;10.79;100.00;97924.25;4984236;28;20076;-74
2023/03/10 07:00:56;;;;;;;0.20;0.20;;;;;;;10.81;100.00;97921.56;4979087;28;20047;-74
2023/03/10 07:03:23;;;;;;;0.20;0.20;;;;;;;10.84;100.00;97924.91;4987790;28;20122;-74
2023/03/10 07:05:49;;;;;;;0.30;0.22;;;;;;;10.83;100.00;97922.34;4983181;28;20038;-74
2023/03/10 07:08:14;;;;;;;0.20;0.20;;;;;;;10.80;100.00;97926.00;4981638;28;20043;-74
2023/03/10 07:10:39;;;;;;;0.15;0.15;;;;;;;10.70;100.00;97927.38;4983973;28;20043;-74
2023/03/10 07:13:05;;;;;;;0.20;0.20;;;;;;;10.61;100.00;97911.97;4982977;28;20034;-74
2023/03/10 07:15:30;;;;;;;0.25;0.20;;;;;;;10.59;100.00;97927.88;4985176;28;20109;-74
2023/03/10 07:17:55;;;;;;;0.20;0.20;;;;;;;10.65;100.00;97932.84;4982629;28;20125;-74
2023/03/10 07:20:23;;;;;;;0.13;0.10;;;;;;;10.65;100.00;97926.72;4983788;28;20157;-74
2023/03/10 07:22:49;;;;;;;0.20;0.20;;;;;;;10.70;100.00;97936.13;4982178;28;20142;-74
2023/03/10 07:25:14;;;;;;;0.20;0.20;;;;;;;10.77;100.00;97939.34;4983759;28;20102;-74
2023/03/10 07:27:39;;;;;;;0.20;0.20;;;;;;;10.78;100.00;97938.41;4984040;28;20084;-74
2023/03/10 07:30:06;;;;;;;0.20;0.20;;;;;;;10.84;100.00;97938.09;4983796;28;20030;-74
2023/03/10 07:32:31;;;;;;;0.30;0.30;;;;;;;10.89;100.00;97933.44;4981371;28;20050;-74
2023/03/10 07:34:57;;;;;;;0.20;0.20;;;;;;;10.92;100.00;97941.22;4981534;28;20034;-74
2023/03/10 07:37:22;;;;;;;0.20;0.20;;;;;;;10.96;100.00;97936.66;4983692;28;20057;-74
2023/03/10 07:39:47;;;;;;;0.28;0.28;;;;;;;11.07;100.00;97954.59;4981852;28;20045;-74
2023/03/10 07:42:13;;;;;;;0.20;0.20;;;;;;;11.10;100.00;97946.53;4981223;28;20043;-74
2023/03/10 07:44:38;;;;;;;0.20;0.20;;;;;;;11.14;100.00;97950.72;4982915;28;20084;-74
2023/03/10 07:47:03;;;;;;;0.20;0.20;;;;;;;11.24;100.00;97940.53;4980922;28;20046;-73
2023/03/10 07:49:29;;;;;;;0.75;0.40;;;;;;;11.27;100.00;97943.91;4986204;28;20045;-74
2023/03/10 07:51:54;;;;;;;1.08;0.43;;;;;;;11.34;100.00;97949.72;4987407;28;20126;-74
2023/03/10 07:54:19;;;;;;;0.40;0.40;;;;;;;11.34;100.00;97955.88;4986871;28;20042;-74
2023/03/10 07:56:45;;;;;;;0.65;0.50;;;;;;;11.51;100.00;97946.25;4984589;28;20050;-74
2023/03/10 07:59:10;;;;;;;0.47;0.47;;;;;;;11.66;99.90;97950.75;4984309;28;20041;-74
2023/03/10 08:01:35;;;;;;;0.30;0.30;;;;;;;11.63;99.56;97954.38;4987793;28;20050;-74
2023/03/10 08:04:01;;;;;;;0.52;0.40;;;;;;;11.68;99.90;97967.34;4984373;28;20050;-74
2023/03/10 08:06:27;;;;;;;0.47;0.40;;;;;;;11.72;99.35;97963.63;4987055;28;20061;-74
2023/03/10 08:08:54;;;;;;;0.70;0.30;;;;;;;11.72;99.37;97960.97;4983539;28;20038;-74
2023/03/10 08:11:20;;;;;;;17.13;8.85;;;;;;;11.81;99.06;97957.84;4986236;28;20102;-74
2023/03/10 08:13:46;;;;;;;0.40;0.40;;;;;;;11.83;98.19;97958.63;4987395;28;20050;-74
2023/03/10 08:16:16;;;;;;;0.60;0.60;;;;;;;11.97;98.91;97963.25;4986949;28;20042;-74
2023/03/10 08:18:41;;;;;;;0.73;0.40;;;;;;;12.12;98.50;97960.69;4987650;28;20580;-74
2023/03/10 08:21:07;;;;;;;0.30;0.30;;;;;;;12.19;97.66;97956.81;4986968;28;20113;-74
2023/03/10 08:23:34;;;;;;;0.43;0.43;;;;;;;12.27;96.77;97957.25;4986161;28;20030;-74
2023/03/10 08:26:04;;;;;;;0.50;0.50;;;;;;;12.48;95.50;97957.84;4985742;28;20069;-74
2023/03/10 08:28:31;;;;;;;0.50;0.50;;;;;;;12.65;95.58;97970.16;4985450;28;20041;-74
2023/03/10 08:30:58;;;;;;;0.40;0.40;;;;;;;12.74;94.87;97955.56;4988260;28;20397;-74
2023/03/10 08:33:25;;;;;;;3.75;0.47;;;;;;;12.71;94.33;97952.16;4984196;28;20047;-74
2023/03/10 08:36:07;;;;;;;0.40;0.40;;;;;;;12.56;93.42;97963.59;4988343;28;20034;-74
2023/03/10 08:38:33;;;;;;;0.50;0.50;;;;;;;12.52;93.18;97956.72;4984204;28;20097;-74
2023/03/10 08:41:17;;;;;;;0.50;0.50;;;;;;;12.60;92.72;97957.19;4985813;28;20054;-75
2023/03/10 08:43:44;;;;;;;0.50;0.50;;;;;;;12.88;92.71;97961.78;4983135;28;20041;-74
2023/03/10 08:46:10;;;;;;;0.60;0.60;;;;;;;13.09;92.97;97949.09;4987015;28;20034;-74
2023/03/10 08:48:35;;;;;;;0.50;0.50;;;;;;;13.16;90.40;97945.16;4983394;28;20030;-74
2023/03/10 08:51:01;;;;;;;0.40;0.40;;;;;;;13.15;90.81;97948.78;4984306;28;20409;-74
2023/03/10 08:53:27;;;;;;;0.52;0.50;;;;;;;13.05;90.58;97952.03;4986065;28;20038;-74
2023/03/10 08:55:53;;;;;;;0.40;0.40;;;;;;;13.02;90.50;97947.78;4985554;28;20077;-74
2023/03/10 08:58:18;;;;;;;0.57;0.45;;;;;;;13.13;90.16;97944.50;4986365;28;20042;-74
2023/03/10 09:00:43;;;;;;;0.40;0.40;;;;;;;13.23;90.29;97947.44;4981382;28;20042;-74
2023/03/10 09:03:10;;;;;;;0.57;0.55;;;;;;;13.19;89.97;97933.53;4986335;28;20034;-74
2023/03/10 09:05:36;;;;;;;0.57;0.57;;;;;;;13.14;89.75;97946.19;4983819;28;20170;-74
2023/03/10 09:08:02;;;;;;;0.65;0.50;;;;;;;13.05;90.73;97942.28;4986228;28;20415;-74
2023/03/10 09:10:28;;;;;;;0.50;0.50;;;;;;;13.07;90.84;97953.66;4984196;28;20038;-74
2023/03/10 09:12:54;;;;;;;0.50;0.50;;;;;;;13.15;91.39;97943.47;4986080;28;20045;-74
2023/03/10 09:15:19;;;;;;;0.50;0.50;;;;;;;13.15;91.94;97940.84;4984399;28;20030;-74
2023/03/10 09:17:44;;;;;;;0.40;0.40;;;;;;;13.18;91.90;97946.88;4983354;28;20026;-74
2023/03/10 09:20:10;;;;;;;0.50;0.50;;;;;;;13.20;91.33;97950.28;4985967;28;20038;-74
2023/03/10 09:22:36;;;;;;;0.50;0.50;;;;;;;13.23;88.86;97958.03;4986110;28;20072;-75
2023/03/10 09:25:01;;;;;;;0.38;0.32;;;;;;;13.30;89.04;97951.50;4983716;28;20030;-74
2023/03/10 09:27:26;;;;;;;0.60;0.60;;;;;;;13.33;87.63;97957.44;4984688;28;20121;-74
2023/03/10 09:29:52;;;;;;;0.70;0.50;;;;;;;13.38;89.29;97954.53;4987725;28;20130;-73
2023/03/10 09:32:17;;;;;;;0.50;0.50;;;;;;;13.50;88.87;97950.34;4983358;28;20046;-74
2023/03/10 09:34:42;;;;;;;0.65;0.65;;;;;;;13.44;87.92;97961.28;4985933;28;20460;-74
2023/03/10 09:37:07;;;;;;;39.42;36.92;;;;;;;13.49;87.92;97952.13;4984632;28;20114;-74
2023/03/10 09:39:33;;;;;;;27.92;26.25;;;;;;;13.47;87.50;97959.31;4982699;28;20043;-74
2023/03/10 09:42:28;;;;;;;1.27;0.73;;;;;;;13.59;87.81;97953.28;4985715;28;20042;-74
2023/03/10 09:45:27;;;;;;;3.55;0.80;;;;;;;13.66;86.34;97956.41;4982819;28;20042;-74
2023/03/10 09:48:34;;;;;;;1.73;0.85;;;;;;;13.73;85.99;97954.28;4985591;28;20136;-74
2023/03/10 09:51:07;;;;;;;2.42;1.17;;;;;;;13.90;85.52;97946.13;4980051;28;20042;-74
2023/03/10 09:53:54;;;;;;;1.88;1.17;;;;;;;13.83;83.30;97955.41;4983837;28;20194;-74
2023/03/10 09:56:26;;;;;;;3.80;3.47;;;;;;;13.88;83.32;97947.16;4983407;28;20042;-74
2023/03/10 09:59:00;;;;;;;;;;;;;;;13.87;83.27;97954.28;4984263;28;20504;-74
2023/03/10 10:01:29;;;;;;;4.15;3.78;;;;;;;13.92;83.60;97959.31;4985189;28;19963;-74
2023/03/10 10:04:11;;;;;;;1.75;1.20;;;;;;;14.20;81.40;97958.44;4984372;28;20117;-74
2023/03/10 10:06:41;;;;;;;3.45;2.63;;;;;;;14.16;79.49;97967.56;4982320;28;20039;-74
2023/03/10 10:09:33;;;;;;;2.97;2.78;;;;;;;14.18;77.52;97957.72;4983495;28;20489;-74
2023/03/10 10:12:17;;;;;;;2.08;1.38;;;;;;;14.43;79.25;97960.50;4985426;28;20054;-74
2023/03/10 10:14:44;;;;;;;3.03;1.48;;;;;;;14.64;80.21;97965.47;4985003;28;20071;-74
2023/03/10 10:17:46;;;;;;;1.83;1.40;;;;;;;14.66;75.72;97971.53;4983649;28;20489;-74
2023/03/10 10:20:30;;;;;;;1.90;1.70;;;;;;;14.67;75.88;97973.22;4984496;28;20038;-74
2023/03/10 10:22:55;;;;;;;2.50;1.50;;;;;;;14.77;78.00;97957.56;4987074;28;20065;-74
2023/03/10 10:25:24;;;;;;;2.30;1.92;;;;;;;14.95;77.38;97966.16;4984539;28;20266;-74
2023/03/10 10:27:52;;;;;;;2.08;1.63;;;;;;;14.94;75.59;97960.00;4983743;28;20053;-74
2023/03/10 10:30:36;;;;;;;2.95;2.67;;;;;;;14.97;74.88;97957.13;4987755;28;20042;-74
2023/03/10 10:33:11;;;;;;;2.38;2.10;;;;;;;14.99;75.36;97959.69;4982991;28;20397;-74
2023/03/10 10:35:39;;;;;;;2.10;1.60;;;;;;;15.01;77.20;97958.66;4987140;28;20089;-74
2023/03/10 10:38:26;;;;;;;2.35;1.63;;;;;;;14.99;75.02;97963.22;4984761;28;20041;-74
2023/03/10 10:41:04;;;;;;;2.58;1.55;;;;;;;15.04;76.24;97954.94;4983315;28;20041;-74
2023/03/10 10:43:29;;;;;;;3.05;1.65;;;;;;;15.10;75.92;97955.38;4981252;28;20134;-74
2023/03/10 10:46:07;;;;;;;2.88;1.77;;;;;;;15.02;75.88;97959.50;4987592;28;20088;-74
2023/03/10 10:48:44;;;;;;;2.22;1.60;;;;;;;14.85;77.14;97956.09;4983132;28;20138;-75
2023/03/10 10:51:28;;;;;;;2.13;1.50;;;;;;;14.69;77.18;97950.94;4980867;28;20481;-74
2023/03/10 10:53:55;;;;;;;3.70;2.20;;;;;;;14.41;76.49;97959.78;4981694;28;20062;-73
2023/03/10 10:56:22;;;;;;;4.75;4.43;;;;;;;14.30;77.68;97956.94;4986940;28;20035;-74
2023/03/10 10:59:02;;;;;;;2.50;2.20;;;;;;;14.50;78.18;97955.69;4983570;28;20448;-74
2023/03/10 11:01:46;;;;;;;2.22;2.03;;;;;;;14.65;78.70;97959.22;4981969;28;20043;-73
2023/03/10 11:04:12;;;;;;;34.53;31.02;;;;;;;14.55;77.30;97952.78;4980622;28;20319;-74
2023/03/10 11:06:38;;;;;;;3.33;1.80;;;;;;;14.40;77.27;97958.06;4984192;28;20085;-74
2023/03/10 11:09:08;;;;;;;2.58;1.13;;;;;;;14.30;77.49;97948.13;4983458;28;20041;-74
2023/03/10 11:11:45;;;;;;;3.00;1.00;;;;;;;14.10;78.66;97950.22;4981515;28;20043;-75
2023/03/10 11:14:36;;;;;;;1.90;1.10;;;;;;;14.06;79.21;97945.19;4981373;28;20046;-74
2023/03/10 11:17:02;;;;;;;2.40;1.40;;;;;;;14.01;79.59;97943.66;4984300;28;20053;-73
2023/03/10 11:20:05;;;;;;;2.40;1.20;;;;;;;14.10;78.68;97949.38;4981207;28;20054;-74
2023/03/10 11:23:09;;;;;;;2.47;1.40;;;;;;;14.36;77.92;97953.06;4983859;28;20061;-74
2023/03/10 11:25:39;;;;;;;2.58;2.15;;;;;;;14.50;78.40;97941.56;4981459;28;20185;-74
2023/03/10 11:28:35;;;;;;;7.75;2.13;;;;;;;14.58;77.23;97936.66;4987878;28;20034;-74
2023/03/10 11:31:31;;;;;;;2.20;1.70;;;;;;;14.74;77.52;97932.06;4979371;28;20034;-74
2023/03/10 11:34:31;;;;;;;7.47;6.97;;;;;;;14.55;77.69;97948.31;4982670;28;20038;-74
2023/03/10 11:37:20;;;;;;;3.28;2.97;;;;;;;14.62;76.52;97932.88;4985637;28;20077;-74
2023/03/10 11:39:52;;;;;;;3.22;2.22;;;;;;;14.67;75.67;97939.59;4982532;28;20043;-74